DAL2040 KSLC-KMIA
Flight info
| Callsign | DAL2040 |
|---|---|
| Flight time | 4h 1m |
| Altitude | 37000 |
| Route | ZIONZ1 KIMMR PNH MDANO ZORDA FELIZ AEX J58 HRV REDFN Q105 BLVNS Y290 DOWRY FROGZ5 |
| Aircraft | A21N/M-SDE2E3FGHIRWXY/LB1 |
Departure
| Time | 2026-05-07 05:09 |
|---|---|
| Airport | Salt Lake City International Airport (KSLC) |
Arrival
| Time | 2026-05-07 09:11 |
|---|---|
| Airport | Miami International Airport (KMIA) |
| Time | Latitude | Longitude | Altitude | Speed | Heading |
|---|---|---|---|---|---|
| 2026-05-07 04:15 | 40.78652 | -111.98089 | 4218 ft | 0 kts | 175° |
| 2026-05-07 04:55 | 40.78672 | -111.98091 | 4236 ft | 4 kts | 175° |
| 2026-05-07 04:55 | 40.78693 | -111.98093 | 4236 ft | 4 kts | 171° |
| 2026-05-07 04:56 | 40.78714 | -111.98105 | 4236 ft | 2 kts | 130° |
| 2026-05-07 04:56 | 40.78728 | -111.98128 | 4236 ft | 2 kts | 130° |
| 2026-05-07 04:56 | 40.78730 | -111.98130 | 4236 ft | 0 kts | 130° |
| 2026-05-07 05:01 | 40.78727 | -111.98126 | 4236 ft | 2 kts | 121° |
| 2026-05-07 05:02 | 40.78727 | -111.98086 | 4236 ft | 7 kts | 70° |
| 2026-05-07 05:02 | 40.78739 | -111.98001 | 4236 ft | 12 kts | 84° |
| 2026-05-07 05:02 | 40.78748 | -111.97878 | 4236 ft | 16 kts | 85° |
| 2026-05-07 05:02 | 40.78763 | -111.97717 | 4236 ft | 19 kts | 52° |
| 2026-05-07 05:03 | 40.78891 | -111.97697 | 4237 ft | 20 kts | 1° |
| 2026-05-07 05:03 | 40.79032 | -111.97712 | 4237 ft | 21 kts | 354° |
| 2026-05-07 05:03 | 40.79179 | -111.97732 | 4236 ft | 22 kts | 354° |
| 2026-05-07 05:03 | 40.79333 | -111.97749 | 4236 ft | 23 kts | 358° |
| 2026-05-07 05:04 | 40.79495 | -111.97768 | 4236 ft | 24 kts | 354° |
| 2026-05-07 05:04 | 40.79664 | -111.97789 | 4236 ft | 25 kts | 354° |
| 2026-05-07 05:04 | 40.79841 | -111.97807 | 4236 ft | 26 kts | 355° |
| 2026-05-07 05:04 | 40.80025 | -111.97830 | 4236 ft | 27 kts | 354° |
| 2026-05-07 05:05 | 40.80219 | -111.97853 | 4237 ft | 28 kts | 357° |
| 2026-05-07 05:05 | 40.80416 | -111.97821 | 4237 ft | 29 kts | 351° |
| 2026-05-07 05:05 | 40.80589 | -111.97842 | 4236 ft | 18 kts | 354° |
| 2026-05-07 05:05 | 40.80714 | -111.97865 | 4236 ft | 12 kts | 23° |
| 2026-05-07 05:06 | 40.80723 | -111.97857 | 4236 ft | 0 kts | 30° |
| 2026-05-07 05:07 | 40.80727 | -111.97853 | 4236 ft | 2 kts | 31° |
| 2026-05-07 05:07 | 40.80740 | -111.97822 | 4235 ft | 6 kts | 75° |
| 2026-05-07 05:08 | 40.80742 | -111.97753 | 4234 ft | 9 kts | 99° |
| 2026-05-07 05:08 | 40.80691 | -111.97694 | 4234 ft | 12 kts | 161° |
| 2026-05-07 05:08 | 40.80633 | -111.97686 | 4235 ft | 0 kts | 175° |
| 2026-05-07 05:08 | 40.80604 | -111.97682 | 4236 ft | 18 kts | 175° |
| 2026-05-07 05:09 | 40.80237 | -111.97640 | 4238 ft | 87 kts | 174° |
| 2026-05-07 05:09 | 40.79356 | -111.97534 | 4235 ft | 166 kts | 173° |
| 2026-05-07 05:09 | 40.77958 | -111.97374 | 4237 ft | 238 kts | 175° |
| 2026-05-07 05:09 | 40.76178 | -111.97235 | 5100 ft | 265 kts | 176° |
| 2026-05-07 05:10 | 40.74291 | -111.97146 | 6000 ft | 270 kts | 179° |
| 2026-05-07 05:10 | 40.72432 | -111.97135 | 7206 ft | 263 kts | 181° |
| 2026-05-07 05:10 | 40.70602 | -111.97086 | 8000 ft | 263 kts | 173° |
| 2026-05-07 05:10 | 40.68805 | -111.96720 | 8651 ft | 270 kts | 170° |
| 2026-05-07 05:11 | 40.66881 | -111.96398 | 9035 ft | 286 kts | 177° |
| 2026-05-07 05:11 | 40.64915 | -111.96289 | 9859 ft | 282 kts | 179° |
| 2026-05-07 05:11 | 40.62934 | -111.96197 | 10769 ft | 282 kts | 179° |
| 2026-05-07 05:11 | 40.60986 | -111.96098 | 11254 ft | 284 kts | 178° |
| 2026-05-07 05:12 | 40.58979 | -111.95988 | 11530 ft | 303 kts | 178° |
| 2026-05-07 05:12 | 40.56801 | -111.95863 | 11810 ft | 323 kts | 178° |
| 2026-05-07 05:12 | 40.54485 | -111.95726 | 12088 ft | 342 kts | 178° |
| 2026-05-07 05:12 | 40.52045 | -111.95580 | 12379 ft | 360 kts | 178° |
| 2026-05-07 05:13 | 40.49495 | -111.95426 | 12974 ft | 371 kts | 178° |
| 2026-05-07 05:13 | 40.46908 | -111.95268 | 13741 ft | 375 kts | 178° |
| 2026-05-07 05:13 | 40.44280 | -111.95103 | 14398 ft | 381 kts | 178° |
| 2026-05-07 05:13 | 40.41615 | -111.94916 | 15021 ft | 384 kts | 178° |
| 2026-05-07 05:14 | 40.38924 | -111.94725 | 15637 ft | 388 kts | 178° |
| 2026-05-07 05:14 | 40.36215 | -111.94534 | 16288 ft | 392 kts | 178° |
| 2026-05-07 05:14 | 40.33475 | -111.94344 | 16925 ft | 395 kts | 178° |
| 2026-05-07 05:14 | 40.30722 | -111.94155 | 17560 ft | 399 kts | 178° |
| 2026-05-07 05:15 | 40.27929 | -111.93873 | 18180 ft | 404 kts | 172° |
| 2026-05-07 05:15 | 40.25277 | -111.92787 | 18715 ft | 408 kts | 153° |
| 2026-05-07 05:15 | 40.22824 | -111.90909 | 18978 ft | 410 kts | 146° |
| 2026-05-07 05:15 | 40.20388 | -111.88849 | 19089 ft | 411 kts | 146° |
| 2026-05-07 05:16 | 40.18010 | -111.86871 | 19169 ft | 410 kts | 147° |
| 2026-05-07 05:16 | 40.15606 | -111.84910 | 19212 ft | 410 kts | 147° |
| 2026-05-07 05:16 | 40.13274 | -111.82857 | 19221 ft | 410 kts | 143° |
| 2026-05-07 05:16 | 40.10990 | -111.80697 | 19211 ft | 409 kts | 141° |
| 2026-05-07 05:17 | 40.08971 | -111.78115 | 19243 ft | 404 kts | 123° |
| 2026-05-07 05:17 | 40.07497 | -111.75056 | 19638 ft | 405 kts | 117° |
| 2026-05-07 05:17 | 40.06087 | -111.71873 | 20175 ft | 408 kts | 117° |
| 2026-05-07 05:17 | 40.04654 | -111.68659 | 20713 ft | 410 kts | 117° |
| 2026-05-07 05:18 | 40.03197 | -111.65443 | 21237 ft | 414 kts | 117° |
| 2026-05-07 05:18 | 40.01711 | -111.62200 | 21760 ft | 417 kts | 117° |
| 2026-05-07 05:18 | 40.00215 | -111.58953 | 22257 ft | 420 kts | 118° |
| 2026-05-07 05:18 | 39.98706 | -111.55686 | 22755 ft | 423 kts | 118° |
| 2026-05-07 05:19 | 39.97169 | -111.52366 | 23233 ft | 426 kts | 118° |
| 2026-05-07 05:19 | 39.96149 | -111.50163 | 23548 ft | 429 kts | 118° |
| 2026-05-07 05:19 | 39.94582 | -111.46779 | 23999 ft | 432 kts | 118° |
| 2026-05-07 05:19 | 39.93053 | -111.43478 | 24375 ft | 435 kts | 117° |
| 2026-05-07 05:20 | 39.91515 | -111.40162 | 24758 ft | 437 kts | 117° |
| 2026-05-07 05:20 | 39.89936 | -111.36766 | 25184 ft | 439 kts | 117° |
| 2026-05-07 05:20 | 39.88327 | -111.33309 | 25589 ft | 442 kts | 117° |
| 2026-05-07 05:20 | 39.86728 | -111.29875 | 25973 ft | 444 kts | 117° |
| 2026-05-07 05:21 | 39.85120 | -111.26426 | 26349 ft | 447 kts | 117° |
| 2026-05-07 05:21 | 39.81907 | -111.19546 | 27089 ft | 452 kts | 118° |
| 2026-05-07 05:21 | 39.80265 | -111.16037 | 27443 ft | 454 kts | 117° |
| 2026-05-07 05:22 | 39.78619 | -111.12526 | 27808 ft | 456 kts | 118° |
| 2026-05-07 05:22 | 39.76962 | -111.08993 | 28171 ft | 458 kts | 118° |
| 2026-05-07 05:22 | 39.75293 | -111.05442 | 28505 ft | 461 kts | 118° |
| 2026-05-07 05:22 | 39.73624 | -111.01890 | 28841 ft | 462 kts | 118° |
| 2026-05-07 05:23 | 39.71939 | -110.98308 | 29188 ft | 465 kts | 118° |
| 2026-05-07 05:23 | 39.70251 | -110.94723 | 29485 ft | 467 kts | 118° |
| 2026-05-07 05:23 | 39.68548 | -110.91108 | 29784 ft | 470 kts | 118° |
| 2026-05-07 05:23 | 39.66837 | -110.87483 | 30088 ft | 472 kts | 118° |
| 2026-05-07 05:24 | 39.65122 | -110.83856 | 30372 ft | 474 kts | 118° |
| 2026-05-07 05:24 | 39.63388 | -110.80193 | 30617 ft | 476 kts | 118° |
| 2026-05-07 05:24 | 39.61648 | -110.76518 | 30856 ft | 478 kts | 118° |
| 2026-05-07 05:24 | 39.59901 | -110.72834 | 31094 ft | 480 kts | 118° |
| 2026-05-07 05:25 | 39.58150 | -110.69146 | 31331 ft | 482 kts | 118° |
| 2026-05-07 05:25 | 39.56384 | -110.65436 | 31563 ft | 483 kts | 118° |
| 2026-05-07 05:25 | 39.54618 | -110.61730 | 31859 ft | 482 kts | 118° |
| 2026-05-07 05:25 | 39.52862 | -110.58044 | 32145 ft | 481 kts | 118° |
| 2026-05-07 05:26 | 39.51103 | -110.54357 | 32427 ft | 481 kts | 118° |
| 2026-05-07 05:26 | 39.49359 | -110.50704 | 32715 ft | 480 kts | 118° |
| 2026-05-07 05:26 | 39.47598 | -110.47021 | 32984 ft | 479 kts | 118° |
| 2026-05-07 05:26 | 39.45866 | -110.43402 | 33249 ft | 479 kts | 118° |
| 2026-05-07 05:27 | 39.44111 | -110.39741 | 33516 ft | 478 kts | 118° |
| 2026-05-07 05:27 | 39.42358 | -110.36087 | 33770 ft | 478 kts | 118° |
| 2026-05-07 05:27 | 39.40602 | -110.32433 | 34002 ft | 477 kts | 118° |
| 2026-05-07 05:27 | 39.38852 | -110.28795 | 34205 ft | 477 kts | 118° |
| 2026-05-07 05:28 | 39.37093 | -110.25144 | 34394 ft | 476 kts | 118° |
| 2026-05-07 05:28 | 39.35337 | -110.21502 | 34573 ft | 476 kts | 118° |
| 2026-05-07 05:28 | 39.33582 | -110.17868 | 34734 ft | 476 kts | 118° |
| 2026-05-07 05:28 | 39.31831 | -110.14243 | 34891 ft | 476 kts | 119° |
| 2026-05-07 05:29 | 39.30074 | -110.10609 | 35041 ft | 477 kts | 119° |
| 2026-05-07 05:29 | 39.28319 | -110.06986 | 35210 ft | 477 kts | 119° |
| 2026-05-07 05:29 | 39.26557 | -110.03357 | 35383 ft | 477 kts | 120° |
| 2026-05-07 05:29 | 39.24796 | -109.99733 | 35557 ft | 477 kts | 120° |
| 2026-05-07 05:30 | 39.23046 | -109.96104 | 35699 ft | 476 kts | 118° |
| 2026-05-07 05:30 | 39.21431 | -109.92387 | 35853 ft | 475 kts | 116° |
| 2026-05-07 05:30 | 39.19844 | -109.88652 | 35993 ft | 475 kts | 116° |
| 2026-05-07 05:30 | 39.18257 | -109.84913 | 36127 ft | 475 kts | 117° |
| 2026-05-07 05:31 | 39.16666 | -109.81183 | 36253 ft | 475 kts | 117° |
| 2026-05-07 05:31 | 39.15095 | -109.77497 | 36361 ft | 475 kts | 117° |
| 2026-05-07 05:31 | 39.13543 | -109.73864 | 36475 ft | 475 kts | 117° |
| 2026-05-07 05:31 | 39.11923 | -109.70074 | 36607 ft | 475 kts | 117° |
| 2026-05-07 05:32 | 39.10348 | -109.66396 | 36708 ft | 475 kts | 117° |
| 2026-05-07 05:32 | 39.08747 | -109.62660 | 36824 ft | 475 kts | 117° |
| 2026-05-07 05:32 | 39.07150 | -109.58940 | 36943 ft | 475 kts | 118° |
| 2026-05-07 05:32 | 39.05579 | -109.55286 | 37058 ft | 474 kts | 118° |
| 2026-05-07 05:33 | 39.03978 | -109.51564 | 37185 ft | 474 kts | 118° |
| 2026-05-07 05:33 | 39.00779 | -109.44136 | 37195 ft | 475 kts | 118° |
| 2026-05-07 05:34 | 38.97565 | -109.36699 | 37159 ft | 475 kts | 118° |
| 2026-05-07 05:34 | 38.94345 | -109.29268 | 37155 ft | 476 kts | 118° |
| 2026-05-07 05:35 | 38.91124 | -109.21846 | 37155 ft | 475 kts | 118° |
| 2026-05-07 05:35 | 38.87893 | -109.14426 | 37155 ft | 475 kts | 118° |
| 2026-05-07 05:36 | 38.84658 | -109.07004 | 37157 ft | 476 kts | 118° |
| 2026-05-07 05:36 | 38.81433 | -108.99631 | 37157 ft | 476 kts | 118° |
| 2026-05-07 05:37 | 38.78188 | -108.92227 | 37162 ft | 475 kts | 119° |
| 2026-05-07 05:37 | 38.74940 | -108.84829 | 37171 ft | 475 kts | 119° |
| 2026-05-07 05:38 | 38.71692 | -108.77453 | 37169 ft | 475 kts | 119° |
| 2026-05-07 05:38 | 38.68430 | -108.70064 | 37187 ft | 476 kts | 119° |
| 2026-05-07 05:39 | 38.65174 | -108.62698 | 37181 ft | 476 kts | 119° |
| 2026-05-07 05:39 | 38.61911 | -108.55344 | 37201 ft | 475 kts | 119° |
| 2026-05-07 05:40 | 38.58687 | -108.48088 | 37191 ft | 476 kts | 119° |
| 2026-05-07 05:40 | 38.55422 | -108.40760 | 37041 ft | 474 kts | 117° |
| 2026-05-07 05:41 | 38.52151 | -108.33432 | 37034 ft | 474 kts | 117° |
| 2026-05-07 05:41 | 38.50528 | -108.29803 | 36840 ft | 473 kts | 117° |
| 2026-05-07 05:41 | 38.48897 | -108.26159 | 36612 ft | 473 kts | 117° |
| 2026-05-07 05:41 | 38.47262 | -108.22512 | 36382 ft | 473 kts | 117° |
| 2026-05-07 05:42 | 38.45628 | -108.18872 | 36148 ft | 474 kts | 117° |
| 2026-05-07 05:42 | 38.43985 | -108.15218 | 35916 ft | 473 kts | 117° |
| 2026-05-07 05:42 | 38.42359 | -108.11606 | 35679 ft | 473 kts | 117° |
| 2026-05-07 05:42 | 38.40722 | -108.07969 | 35422 ft | 471 kts | 117° |
| 2026-05-07 05:43 | 38.39091 | -108.04353 | 35032 ft | 467 kts | 116° |
| 2026-05-07 05:43 | 38.37475 | -108.00771 | 34671 ft | 465 kts | 116° |
| 2026-05-07 05:43 | 38.35866 | -107.97212 | 34394 ft | 463 kts | 116° |
| 2026-05-07 05:43 | 38.34260 | -107.93660 | 34120 ft | 461 kts | 116° |
| 2026-05-07 05:44 | 38.32659 | -107.90126 | 33838 ft | 459 kts | 116° |
| 2026-05-07 05:44 | 38.31070 | -107.86622 | 33558 ft | 457 kts | 116° |
| 2026-05-07 05:44 | 38.29484 | -107.83130 | 33297 ft | 455 kts | 116° |
| 2026-05-07 05:45 | 38.26318 | -107.76165 | 33259 ft | 454 kts | 116° |
| 2026-05-07 05:45 | 38.23147 | -107.69199 | 33278 ft | 454 kts | 116° |
| 2026-05-07 05:46 | 38.19974 | -107.62250 | 33301 ft | 455 kts | 116° |
| 2026-05-07 05:46 | 38.16801 | -107.55318 | 33288 ft | 455 kts | 116° |
| 2026-05-07 05:47 | 38.13591 | -107.48316 | 33359 ft | 464 kts | 116° |
| 2026-05-07 05:47 | 38.11952 | -107.44746 | 33478 ft | 467 kts | 116° |
| 2026-05-07 05:47 | 38.10360 | -107.41280 | 33694 ft | 468 kts | 117° |
| 2026-05-07 05:47 | 38.08729 | -107.37740 | 33964 ft | 467 kts | 117° |
| 2026-05-07 05:48 | 38.07087 | -107.34180 | 34215 ft | 467 kts | 117° |
| 2026-05-07 05:48 | 38.05441 | -107.30615 | 34400 ft | 468 kts | 117° |
| 2026-05-07 05:48 | 38.03773 | -107.27002 | 34581 ft | 469 kts | 117° |
| 2026-05-07 05:48 | 38.02143 | -107.23478 | 34765 ft | 469 kts | 117° |
| 2026-05-07 05:49 | 38.00471 | -107.19866 | 34933 ft | 470 kts | 117° |
| 2026-05-07 05:49 | 37.98837 | -107.16340 | 35099 ft | 470 kts | 117° |
| 2026-05-07 05:49 | 37.97179 | -107.12765 | 35265 ft | 470 kts | 117° |
| 2026-05-07 05:50 | 37.93855 | -107.05604 | 35336 ft | 471 kts | 117° |
| 2026-05-07 05:50 | 37.90519 | -106.98440 | 35302 ft | 472 kts | 117° |
| 2026-05-07 05:51 | 37.87180 | -106.91292 | 35284 ft | 472 kts | 117° |
| 2026-05-07 05:51 | 37.83844 | -106.84158 | 35275 ft | 472 kts | 117° |
| 2026-05-07 05:52 | 37.80499 | -106.77023 | 35277 ft | 471 kts | 117° |
| 2026-05-07 05:52 | 37.77159 | -106.69912 | 35273 ft | 470 kts | 117° |
| 2026-05-07 05:53 | 37.73815 | -106.62812 | 35277 ft | 470 kts | 117° |
| 2026-05-07 05:53 | 37.70487 | -106.55755 | 35284 ft | 470 kts | 117° |
| 2026-05-07 05:54 | 37.67136 | -106.48674 | 35299 ft | 470 kts | 117° |
| 2026-05-07 05:54 | 37.63781 | -106.41590 | 35286 ft | 470 kts | 117° |
| 2026-05-07 05:55 | 37.60419 | -106.34511 | 35300 ft | 470 kts | 117° |
| 2026-05-07 05:55 | 37.57056 | -106.27443 | 35277 ft | 470 kts | 117° |
| 2026-05-07 05:56 | 37.53679 | -106.20363 | 35267 ft | 471 kts | 117° |
| 2026-05-07 05:56 | 37.50297 | -106.13301 | 35255 ft | 472 kts | 118° |
| 2026-05-07 05:57 | 37.46910 | -106.06219 | 35262 ft | 472 kts | 118° |
| 2026-05-07 05:57 | 37.43513 | -105.99139 | 35270 ft | 471 kts | 118° |
| 2026-05-07 05:58 | 37.40138 | -105.92124 | 35279 ft | 471 kts | 118° |
| 2026-05-07 05:58 | 37.36727 | -105.85052 | 35281 ft | 471 kts | 118° |
| 2026-05-07 05:59 | 37.33903 | -105.79206 | 35275 ft | 471 kts | 118° |
| 2026-05-07 05:59 | 37.30498 | -105.72169 | 35266 ft | 471 kts | 118° |
| 2026-05-07 06:00 | 37.27085 | -105.65135 | 35256 ft | 471 kts | 118° |
| 2026-05-07 06:00 | 37.23668 | -105.58104 | 35240 ft | 471 kts | 118° |
| 2026-05-07 06:01 | 37.20277 | -105.51141 | 35222 ft | 470 kts | 118° |
| 2026-05-07 06:01 | 37.16868 | -105.44159 | 35224 ft | 470 kts | 119° |
| 2026-05-07 06:02 | 37.13446 | -105.37164 | 35212 ft | 471 kts | 119° |
| 2026-05-07 06:02 | 37.10020 | -105.30173 | 35208 ft | 471 kts | 119° |
| 2026-05-07 06:03 | 37.06590 | -105.23191 | 35199 ft | 471 kts | 119° |
| 2026-05-07 06:03 | 37.03152 | -105.16207 | 35198 ft | 471 kts | 120° |
| 2026-05-07 06:04 | 36.99716 | -105.09232 | 35202 ft | 471 kts | 120° |
| 2026-05-07 06:04 | 36.96263 | -105.02253 | 35206 ft | 471 kts | 120° |
| 2026-05-07 06:05 | 36.92817 | -104.95298 | 35214 ft | 471 kts | 120° |
| 2026-05-07 06:05 | 36.89359 | -104.88329 | 35224 ft | 471 kts | 120° |
| 2026-05-07 06:06 | 36.85903 | -104.81383 | 35239 ft | 471 kts | 121° |
| 2026-05-07 06:06 | 36.82443 | -104.74440 | 35250 ft | 471 kts | 121° |
| 2026-05-07 06:07 | 36.78972 | -104.67492 | 35257 ft | 472 kts | 121° |
| 2026-05-07 06:07 | 36.75496 | -104.60547 | 35259 ft | 472 kts | 121° |
| 2026-05-07 06:08 | 36.72015 | -104.53605 | 35261 ft | 473 kts | 121° |
| 2026-05-07 06:08 | 36.68521 | -104.46654 | 35262 ft | 473 kts | 121° |
| 2026-05-07 06:09 | 36.65044 | -104.39750 | 35257 ft | 474 kts | 122° |
| 2026-05-07 06:09 | 36.61535 | -104.32799 | 35264 ft | 474 kts | 122° |
| 2026-05-07 06:10 | 36.58018 | -104.25843 | 35267 ft | 475 kts | 122° |
| 2026-05-07 06:10 | 36.54494 | -104.18891 | 35266 ft | 475 kts | 122° |
| 2026-05-07 06:11 | 36.50966 | -104.11943 | 35270 ft | 475 kts | 122° |
| 2026-05-07 06:11 | 36.47438 | -104.05009 | 35271 ft | 476 kts | 122° |
| 2026-05-07 06:12 | 36.43899 | -103.98067 | 35273 ft | 477 kts | 123° |
| 2026-05-07 06:12 | 36.40339 | -103.91098 | 35282 ft | 478 kts | 123° |
| 2026-05-07 06:13 | 36.36774 | -103.84138 | 35282 ft | 479 kts | 123° |
| 2026-05-07 06:13 | 36.33196 | -103.77165 | 35284 ft | 480 kts | 124° |
| 2026-05-07 06:14 | 36.29606 | -103.70181 | 35287 ft | 481 kts | 124° |
| 2026-05-07 06:14 | 36.26000 | -103.63179 | 35283 ft | 482 kts | 124° |
| 2026-05-07 06:15 | 36.22387 | -103.56179 | 35284 ft | 482 kts | 124° |
| 2026-05-07 06:15 | 36.18781 | -103.49206 | 35282 ft | 483 kts | 125° |
| 2026-05-07 06:16 | 36.15151 | -103.42203 | 35281 ft | 484 kts | 125° |
| 2026-05-07 06:16 | 36.11515 | -103.35206 | 35286 ft | 485 kts | 126° |
| 2026-05-07 06:17 | 36.07857 | -103.28173 | 35278 ft | 486 kts | 126° |
| 2026-05-07 06:17 | 36.04194 | -103.21151 | 35276 ft | 487 kts | 126° |
| 2026-05-07 06:18 | 36.00513 | -103.14106 | 35279 ft | 488 kts | 127° |
| 2026-05-07 06:18 | 35.96822 | -103.07059 | 35276 ft | 489 kts | 127° |
| 2026-05-07 06:19 | 35.93123 | -103.00011 | 35275 ft | 490 kts | 127° |
| 2026-05-07 06:19 | 35.89412 | -102.92955 | 35273 ft | 491 kts | 128° |
| 2026-05-07 06:20 | 35.85709 | -102.85925 | 35267 ft | 492 kts | 128° |
| 2026-05-07 06:20 | 35.81976 | -102.78855 | 35272 ft | 493 kts | 128° |
| 2026-05-07 06:21 | 35.78224 | -102.71763 | 35271 ft | 495 kts | 129° |
| 2026-05-07 06:21 | 35.74454 | -102.64649 | 35289 ft | 496 kts | 129° |
| 2026-05-07 06:22 | 35.70687 | -102.57557 | 35261 ft | 498 kts | 129° |
| 2026-05-07 06:22 | 35.64959 | -102.46803 | 35258 ft | 501 kts | 130° |
| 2026-05-07 06:23 | 35.61131 | -102.39632 | 35250 ft | 502 kts | 130° |
| 2026-05-07 06:23 | 35.57311 | -102.32492 | 35251 ft | 504 kts | 131° |
| 2026-05-07 06:24 | 35.53453 | -102.25304 | 35242 ft | 505 kts | 131° |
| 2026-05-07 06:24 | 35.49574 | -102.18084 | 35240 ft | 506 kts | 131° |
| 2026-05-07 06:25 | 35.45690 | -102.10871 | 35237 ft | 507 kts | 132° |
| 2026-05-07 06:25 | 35.41792 | -102.03646 | 35243 ft | 508 kts | 132° |
| 2026-05-07 06:26 | 35.37891 | -101.96430 | 35242 ft | 509 kts | 133° |
| 2026-05-07 06:26 | 35.33972 | -101.89191 | 35247 ft | 509 kts | 133° |
| 2026-05-07 06:27 | 35.30047 | -101.81957 | 35251 ft | 510 kts | 133° |
| 2026-05-07 06:27 | 35.26139 | -101.74781 | 35255 ft | 510 kts | 134° |
| 2026-05-07 06:28 | 35.22380 | -101.67309 | 35253 ft | 519 kts | 126° |
| 2026-05-07 06:28 | 35.19136 | -101.59463 | 35253 ft | 521 kts | 126° |
| 2026-05-07 06:29 | 35.15864 | -101.51555 | 35245 ft | 521 kts | 127° |
| 2026-05-07 06:29 | 35.12554 | -101.43663 | 35236 ft | 523 kts | 127° |
| 2026-05-07 06:30 | 35.09250 | -101.35722 | 35223 ft | 524 kts | 127° |
| 2026-05-07 06:30 | 35.05935 | -101.27794 | 35214 ft | 524 kts | 127° |
| 2026-05-07 06:31 | 35.02620 | -101.19899 | 35208 ft | 523 kts | 127° |
| 2026-05-07 06:31 | 34.99294 | -101.12008 | 35220 ft | 523 kts | 127° |
| 2026-05-07 06:32 | 34.95975 | -101.04138 | 35215 ft | 521 kts | 127° |
| 2026-05-07 06:32 | 34.92665 | -100.96301 | 35209 ft | 520 kts | 127° |
| 2026-05-07 06:33 | 34.89355 | -100.88506 | 35208 ft | 518 kts | 128° |
| 2026-05-07 06:33 | 34.86036 | -100.80695 | 35200 ft | 517 kts | 128° |
| 2026-05-07 06:34 | 34.82720 | -100.72913 | 35201 ft | 516 kts | 128° |
| 2026-05-07 06:34 | 34.79422 | -100.65184 | 35202 ft | 515 kts | 128° |
| 2026-05-07 06:35 | 34.76113 | -100.57438 | 35197 ft | 514 kts | 128° |
| 2026-05-07 06:35 | 34.72811 | -100.49738 | 35201 ft | 513 kts | 129° |
| 2026-05-07 06:36 | 34.69516 | -100.42106 | 35196 ft | 512 kts | 129° |
| 2026-05-07 06:36 | 34.66207 | -100.34427 | 35204 ft | 512 kts | 129° |
| 2026-05-07 06:37 | 34.62911 | -100.26763 | 35201 ft | 511 kts | 129° |
| 2026-05-07 06:37 | 34.59614 | -100.19144 | 35206 ft | 510 kts | 129° |
| 2026-05-07 06:38 | 34.56312 | -100.11535 | 35211 ft | 509 kts | 130° |
| 2026-05-07 06:38 | 34.53571 | -100.05212 | 35195 ft | 509 kts | 130° |
| 2026-05-07 06:39 | 34.50265 | -99.97628 | 35187 ft | 508 kts | 130° |
| 2026-05-07 06:39 | 34.46960 | -99.90068 | 35177 ft | 507 kts | 130° |
| 2026-05-07 06:40 | 34.43659 | -99.82511 | 35164 ft | 507 kts | 130° |
| 2026-05-07 06:40 | 34.40351 | -99.74969 | 35162 ft | 507 kts | 130° |
| 2026-05-07 06:41 | 34.37065 | -99.67485 | 35159 ft | 506 kts | 130° |
| 2026-05-07 06:41 | 34.33734 | -99.59914 | 35154 ft | 506 kts | 131° |
| 2026-05-07 06:42 | 34.30234 | -99.52607 | 35151 ft | 500 kts | 134° |
| 2026-05-07 06:42 | 34.26640 | -99.45400 | 35148 ft | 500 kts | 134° |
| 2026-05-07 06:43 | 34.23055 | -99.38202 | 35141 ft | 500 kts | 134° |
| 2026-05-07 06:43 | 34.19473 | -99.30998 | 35144 ft | 500 kts | 134° |
| 2026-05-07 06:44 | 34.15882 | -99.23790 | 35142 ft | 500 kts | 134° |
| 2026-05-07 06:44 | 34.12281 | -99.16597 | 35139 ft | 500 kts | 134° |
| 2026-05-07 06:45 | 34.08700 | -99.09456 | 35133 ft | 501 kts | 134° |
| 2026-05-07 06:45 | 34.05086 | -99.02278 | 35133 ft | 501 kts | 134° |
| 2026-05-07 06:46 | 34.01476 | -98.95116 | 35130 ft | 501 kts | 134° |
| 2026-05-07 06:46 | 33.97854 | -98.87926 | 35133 ft | 500 kts | 134° |
| 2026-05-07 06:47 | 33.94235 | -98.80767 | 35147 ft | 501 kts | 134° |
| 2026-05-07 06:47 | 33.90605 | -98.73612 | 35164 ft | 501 kts | 134° |
| 2026-05-07 06:48 | 33.86971 | -98.66441 | 35170 ft | 502 kts | 134° |
| 2026-05-07 06:48 | 33.83332 | -98.59286 | 35194 ft | 502 kts | 134° |
| 2026-05-07 06:49 | 33.79682 | -98.52127 | 35193 ft | 502 kts | 134° |
| 2026-05-07 06:49 | 33.76118 | -98.44865 | 35184 ft | 506 kts | 132° |
| 2026-05-07 06:50 | 33.72867 | -98.37983 | 35174 ft | 507 kts | 132° |
| 2026-05-07 06:50 | 33.69401 | -98.30657 | 35156 ft | 508 kts | 132° |
| 2026-05-07 06:51 | 33.65925 | -98.23320 | 35136 ft | 508 kts | 132° |
| 2026-05-07 06:51 | 33.62402 | -98.15913 | 35120 ft | 508 kts | 132° |
| 2026-05-07 06:52 | 33.58919 | -98.08609 | 35117 ft | 508 kts | 132° |
| 2026-05-07 06:52 | 33.55394 | -98.01243 | 35115 ft | 508 kts | 132° |
| 2026-05-07 06:53 | 33.51873 | -97.93887 | 35109 ft | 508 kts | 132° |
| 2026-05-07 06:53 | 33.48354 | -97.86541 | 35123 ft | 508 kts | 132° |
| 2026-05-07 06:54 | 33.44840 | -97.79226 | 35119 ft | 508 kts | 132° |
| 2026-05-07 06:54 | 33.41298 | -97.71880 | 35123 ft | 508 kts | 132° |
| 2026-05-07 06:55 | 33.37757 | -97.64545 | 35131 ft | 509 kts | 132° |
| 2026-05-07 06:55 | 33.34221 | -97.57220 | 35133 ft | 509 kts | 132° |
| 2026-05-07 06:56 | 33.30654 | -97.49856 | 35134 ft | 509 kts | 132° |
| 2026-05-07 06:56 | 33.27246 | -97.42849 | 35124 ft | 509 kts | 132° |
| 2026-05-07 06:57 | 33.23689 | -97.35541 | 35129 ft | 509 kts | 132° |
| 2026-05-07 06:57 | 33.20134 | -97.28244 | 35125 ft | 508 kts | 132° |
| 2026-05-07 06:58 | 33.16572 | -97.20949 | 35127 ft | 508 kts | 133° |
| 2026-05-07 06:58 | 33.13007 | -97.13678 | 35126 ft | 508 kts | 133° |
| 2026-05-07 06:59 | 33.09427 | -97.06413 | 35111 ft | 508 kts | 133° |
| 2026-05-07 06:59 | 33.05882 | -96.99181 | 35108 ft | 508 kts | 132° |
| 2026-05-07 07:00 | 33.02429 | -96.92151 | 35114 ft | 507 kts | 133° |
| 2026-05-07 07:00 | 32.98870 | -96.84920 | 35115 ft | 507 kts | 132° |
| 2026-05-07 07:01 | 32.95289 | -96.77693 | 35118 ft | 507 kts | 133° |
| 2026-05-07 07:01 | 32.91705 | -96.70460 | 35122 ft | 507 kts | 132° |
| 2026-05-07 07:02 | 32.88140 | -96.63255 | 35111 ft | 507 kts | 132° |
| 2026-05-07 07:02 | 32.84514 | -96.55971 | 35118 ft | 508 kts | 132° |
| 2026-05-07 07:03 | 32.80973 | -96.48859 | 35115 ft | 508 kts | 132° |
| 2026-05-07 07:03 | 32.77401 | -96.41704 | 35114 ft | 508 kts | 132° |
| 2026-05-07 07:04 | 32.73781 | -96.34465 | 35110 ft | 508 kts | 132° |
| 2026-05-07 07:04 | 32.70245 | -96.27422 | 35107 ft | 509 kts | 132° |
| 2026-05-07 07:05 | 32.66630 | -96.20216 | 35104 ft | 508 kts | 132° |
| 2026-05-07 07:05 | 32.63058 | -96.13105 | 35101 ft | 508 kts | 132° |
| 2026-05-07 07:06 | 32.59448 | -96.05940 | 35101 ft | 508 kts | 132° |
| 2026-05-07 07:06 | 32.55813 | -95.98746 | 35100 ft | 508 kts | 132° |
| 2026-05-07 07:07 | 32.52173 | -95.91565 | 35100 ft | 508 kts | 132° |
| 2026-05-07 07:07 | 32.48536 | -95.84396 | 35093 ft | 508 kts | 132° |
| 2026-05-07 07:08 | 32.44887 | -95.77243 | 35101 ft | 507 kts | 132° |
| 2026-05-07 07:08 | 32.41245 | -95.70092 | 35097 ft | 509 kts | 131° |
| 2026-05-07 07:09 | 32.39611 | -95.66300 | 35094 ft | 520 kts | 123° |
| 2026-05-07 07:09 | 32.38229 | -95.62331 | 35106 ft | 522 kts | 121° |
| 2026-05-07 07:09 | 32.35545 | -95.54389 | 35110 ft | 523 kts | 121° |
| 2026-05-07 07:10 | 32.32831 | -95.46465 | 35109 ft | 521 kts | 122° |
| 2026-05-07 07:10 | 32.30083 | -95.38535 | 35104 ft | 521 kts | 122° |
| 2026-05-07 07:11 | 32.27490 | -95.31062 | 35106 ft | 522 kts | 122° |
| 2026-05-07 07:11 | 32.24725 | -95.23107 | 35098 ft | 523 kts | 122° |
| 2026-05-07 07:12 | 32.21951 | -95.15167 | 35093 ft | 523 kts | 121° |
| 2026-05-07 07:12 | 32.19183 | -95.07245 | 35091 ft | 523 kts | 122° |
| 2026-05-07 07:13 | 32.16399 | -94.99309 | 35097 ft | 522 kts | 122° |
| 2026-05-07 07:13 | 32.13618 | -94.91386 | 35095 ft | 522 kts | 121° |
| 2026-05-07 07:14 | 32.10829 | -94.83471 | 35098 ft | 522 kts | 122° |
| 2026-05-07 07:14 | 32.08505 | -94.76902 | 35098 ft | 522 kts | 121° |
| 2026-05-07 07:15 | 32.05714 | -94.69000 | 35092 ft | 522 kts | 122° |
| 2026-05-07 07:15 | 32.02912 | -94.61101 | 35089 ft | 521 kts | 121° |
| 2026-05-07 07:16 | 32.00118 | -94.53246 | 35077 ft | 521 kts | 122° |
| 2026-05-07 07:16 | 31.97316 | -94.45362 | 35070 ft | 521 kts | 121° |
| 2026-05-07 07:17 | 31.94712 | -94.38090 | 35070 ft | 521 kts | 122° |
| 2026-05-07 07:17 | 31.91905 | -94.30231 | 35073 ft | 521 kts | 122° |
| 2026-05-07 07:18 | 31.89073 | -94.22379 | 35064 ft | 520 kts | 122° |
| 2026-05-07 07:18 | 31.86255 | -94.14545 | 35077 ft | 520 kts | 122° |
| 2026-05-07 07:19 | 31.83427 | -94.06716 | 35068 ft | 520 kts | 122° |
| 2026-05-07 07:19 | 31.80604 | -93.98901 | 35064 ft | 519 kts | 121° |
| 2026-05-07 07:20 | 31.77781 | -93.91073 | 35063 ft | 519 kts | 122° |
| 2026-05-07 07:20 | 31.74950 | -93.83270 | 35056 ft | 518 kts | 121° |
| 2026-05-07 07:21 | 31.72134 | -93.75532 | 35051 ft | 517 kts | 122° |
| 2026-05-07 07:21 | 31.69305 | -93.67756 | 35044 ft | 517 kts | 121° |
| 2026-05-07 07:22 | 31.66464 | -93.59951 | 35046 ft | 517 kts | 121° |
| 2026-05-07 07:22 | 31.63645 | -93.52234 | 35041 ft | 516 kts | 122° |
| 2026-05-07 07:23 | 31.60886 | -93.44717 | 35040 ft | 516 kts | 121° |
| 2026-05-07 07:23 | 31.58054 | -93.37014 | 35045 ft | 515 kts | 122° |
| 2026-05-07 07:24 | 31.55207 | -93.29296 | 35040 ft | 514 kts | 122° |
| 2026-05-07 07:24 | 31.52359 | -93.21608 | 35044 ft | 514 kts | 122° |
| 2026-05-07 07:25 | 31.48098 | -93.10088 | 35038 ft | 513 kts | 121° |
| 2026-05-07 07:26 | 31.45260 | -93.02429 | 35031 ft | 512 kts | 122° |
| 2026-05-07 07:26 | 31.42441 | -92.94849 | 35025 ft | 511 kts | 121° |
| 2026-05-07 07:27 | 31.39596 | -92.87246 | 35021 ft | 510 kts | 122° |
| 2026-05-07 07:27 | 31.36758 | -92.79648 | 35022 ft | 509 kts | 121° |
| 2026-05-07 07:28 | 31.33902 | -92.72011 | 35026 ft | 508 kts | 122° |
| 2026-05-07 07:28 | 31.31058 | -92.64450 | 35028 ft | 508 kts | 122° |
| 2026-05-07 07:29 | 31.28218 | -92.56892 | 35028 ft | 507 kts | 122° |
| 2026-05-07 07:29 | 31.25303 | -92.49511 | 35025 ft | 499 kts | 128° |
| 2026-05-07 07:30 | 31.21613 | -92.42640 | 35027 ft | 494 kts | 131° |
| 2026-05-07 07:30 | 31.17916 | -92.35947 | 35011 ft | 493 kts | 131° |
| 2026-05-07 07:31 | 31.14211 | -92.29194 | 35010 ft | 493 kts | 131° |
| 2026-05-07 07:31 | 31.10522 | -92.22467 | 35012 ft | 492 kts | 131° |
| 2026-05-07 07:32 | 31.06823 | -92.15737 | 35025 ft | 492 kts | 131° |
| 2026-05-07 07:32 | 31.03129 | -92.09027 | 35027 ft | 491 kts | 131° |
| 2026-05-07 07:33 | 30.99438 | -92.02338 | 35021 ft | 490 kts | 131° |
| 2026-05-07 07:33 | 30.95746 | -91.95660 | 35011 ft | 489 kts | 131° |
| 2026-05-07 07:34 | 30.92054 | -91.88995 | 34994 ft | 488 kts | 131° |
| 2026-05-07 07:34 | 30.88404 | -91.82404 | 34977 ft | 487 kts | 131° |
| 2026-05-07 07:35 | 30.84724 | -91.75787 | 34960 ft | 487 kts | 130° |
| 2026-05-07 07:35 | 30.81052 | -91.69172 | 34959 ft | 486 kts | 130° |
| 2026-05-07 07:36 | 30.77375 | -91.62571 | 34965 ft | 485 kts | 130° |
| 2026-05-07 07:36 | 30.73699 | -91.56006 | 34981 ft | 485 kts | 130° |
| 2026-05-07 07:37 | 30.70027 | -91.49434 | 34973 ft | 485 kts | 130° |
| 2026-05-07 07:37 | 30.66328 | -91.42821 | 34969 ft | 485 kts | 130° |
| 2026-05-07 07:38 | 30.62670 | -91.36297 | 34963 ft | 485 kts | 130° |
| 2026-05-07 07:38 | 30.58985 | -91.29746 | 34949 ft | 485 kts | 130° |
| 2026-05-07 07:39 | 30.55298 | -91.23199 | 34948 ft | 485 kts | 130° |
| 2026-05-07 07:39 | 30.51582 | -91.16605 | 34946 ft | 485 kts | 129° |
| 2026-05-07 07:40 | 30.47910 | -91.10111 | 34948 ft | 484 kts | 129° |
| 2026-05-07 07:40 | 30.44193 | -91.03539 | 34946 ft | 484 kts | 129° |
| 2026-05-07 07:41 | 30.40516 | -90.97047 | 34943 ft | 484 kts | 129° |
| 2026-05-07 07:41 | 30.36828 | -90.90547 | 34949 ft | 484 kts | 129° |
| 2026-05-07 07:42 | 30.33124 | -90.84027 | 34944 ft | 484 kts | 129° |
| 2026-05-07 07:42 | 30.29416 | -90.77513 | 34945 ft | 484 kts | 129° |
| 2026-05-07 07:43 | 30.25699 | -90.70999 | 34954 ft | 484 kts | 129° |
| 2026-05-07 07:43 | 30.21982 | -90.64494 | 34955 ft | 485 kts | 129° |
| 2026-05-07 07:44 | 30.18254 | -90.57980 | 34960 ft | 486 kts | 129° |
| 2026-05-07 07:44 | 30.14522 | -90.51465 | 34959 ft | 486 kts | 129° |
| 2026-05-07 07:45 | 30.10783 | -90.44947 | 34960 ft | 486 kts | 129° |
| 2026-05-07 07:45 | 30.07068 | -90.38479 | 34952 ft | 487 kts | 129° |
| 2026-05-07 07:46 | 30.03312 | -90.31960 | 34949 ft | 488 kts | 129° |
| 2026-05-07 07:46 | 29.99566 | -90.25464 | 34949 ft | 488 kts | 129° |
| 2026-05-07 07:47 | 29.95795 | -90.18941 | 34952 ft | 489 kts | 129° |
| 2026-05-07 07:47 | 29.92012 | -90.12400 | 34958 ft | 489 kts | 129° |
| 2026-05-07 07:48 | 29.88218 | -90.05876 | 34957 ft | 490 kts | 129° |
| 2026-05-07 07:48 | 29.84341 | -89.99431 | 34957 ft | 487 kts | 134° |
| 2026-05-07 07:49 | 29.79996 | -89.93453 | 34960 ft | 486 kts | 136° |
| 2026-05-07 07:49 | 29.75625 | -89.87510 | 34954 ft | 487 kts | 136° |
| 2026-05-07 07:50 | 29.71249 | -89.81559 | 34951 ft | 487 kts | 136° |
| 2026-05-07 07:50 | 29.66916 | -89.75662 | 34947 ft | 487 kts | 136° |
| 2026-05-07 07:51 | 29.62540 | -89.69724 | 34950 ft | 487 kts | 136° |
| 2026-05-07 07:51 | 29.58170 | -89.63795 | 34954 ft | 487 kts | 136° |
| 2026-05-07 07:52 | 29.54529 | -89.58861 | 34958 ft | 486 kts | 136° |
| 2026-05-07 07:52 | 29.50157 | -89.52951 | 34960 ft | 486 kts | 136° |
| 2026-05-07 07:53 | 29.45764 | -89.47023 | 34968 ft | 486 kts | 136° |
| 2026-05-07 07:53 | 29.41391 | -89.41126 | 34969 ft | 486 kts | 136° |
| 2026-05-07 07:54 | 29.36997 | -89.35214 | 34973 ft | 486 kts | 136° |
| 2026-05-07 07:54 | 29.32605 | -89.29306 | 34969 ft | 486 kts | 136° |
| 2026-05-07 07:55 | 29.28217 | -89.23422 | 34975 ft | 486 kts | 136° |
| 2026-05-07 07:55 | 29.23824 | -89.17549 | 34973 ft | 486 kts | 136° |
| 2026-05-07 07:56 | 29.19455 | -89.11704 | 34975 ft | 485 kts | 136° |
| 2026-05-07 07:56 | 29.15079 | -89.05854 | 34979 ft | 485 kts | 136° |
| 2026-05-07 07:57 | 29.10685 | -88.99967 | 34970 ft | 485 kts | 136° |
| 2026-05-07 07:57 | 29.06290 | -88.94107 | 34976 ft | 485 kts | 136° |
| 2026-05-07 07:58 | 29.01900 | -88.88268 | 34977 ft | 485 kts | 136° |
| 2026-05-07 07:58 | 28.97500 | -88.82418 | 34976 ft | 484 kts | 136° |
| 2026-05-07 07:59 | 28.93109 | -88.76589 | 34977 ft | 484 kts | 136° |
| 2026-05-07 07:59 | 28.88737 | -88.70794 | 34978 ft | 484 kts | 136° |
| 2026-05-07 08:00 | 28.84357 | -88.64942 | 34977 ft | 484 kts | 135° |
| 2026-05-07 08:00 | 28.80001 | -88.59088 | 34978 ft | 484 kts | 135° |
| 2026-05-07 08:01 | 28.75643 | -88.53245 | 34977 ft | 484 kts | 135° |
| 2026-05-07 08:01 | 28.71290 | -88.47423 | 34977 ft | 484 kts | 135° |
| 2026-05-07 08:02 | 28.66920 | -88.41581 | 34979 ft | 483 kts | 135° |
| 2026-05-07 08:02 | 28.62556 | -88.35760 | 34980 ft | 483 kts | 135° |
| 2026-05-07 08:03 | 28.58184 | -88.29945 | 34980 ft | 483 kts | 135° |
| 2026-05-07 08:03 | 28.53815 | -88.24131 | 34984 ft | 483 kts | 135° |
| 2026-05-07 08:04 | 28.49455 | -88.18335 | 34983 ft | 482 kts | 135° |
| 2026-05-07 08:04 | 28.45083 | -88.12535 | 34982 ft | 482 kts | 135° |
| 2026-05-07 08:05 | 28.40743 | -88.06787 | 34975 ft | 482 kts | 135° |
| 2026-05-07 08:05 | 28.37226 | -88.00256 | 34980 ft | 492 kts | 113° |
| 2026-05-07 08:06 | 28.35107 | -87.92847 | 34986 ft | 493 kts | 109° |
| 2026-05-07 08:06 | 28.33030 | -87.85438 | 34983 ft | 492 kts | 110° |
| 2026-05-07 08:07 | 28.30899 | -87.78052 | 34976 ft | 492 kts | 110° |
| 2026-05-07 08:07 | 28.28771 | -87.70726 | 34997 ft | 492 kts | 110° |
| 2026-05-07 08:08 | 28.26629 | -87.63359 | 34990 ft | 492 kts | 110° |
| 2026-05-07 08:08 | 28.24475 | -87.55991 | 35002 ft | 492 kts | 110° |
| 2026-05-07 08:09 | 28.22325 | -87.48632 | 34991 ft | 492 kts | 110° |
| 2026-05-07 08:09 | 28.20173 | -87.41271 | 34989 ft | 491 kts | 110° |
| 2026-05-07 08:10 | 28.18014 | -87.33908 | 34984 ft | 491 kts | 110° |
| 2026-05-07 08:10 | 28.15856 | -87.26564 | 34990 ft | 491 kts | 111° |
| 2026-05-07 08:11 | 28.13692 | -87.19221 | 35000 ft | 491 kts | 111° |
| 2026-05-07 08:11 | 28.11532 | -87.11888 | 35003 ft | 491 kts | 110° |
| 2026-05-07 08:12 | 28.09365 | -87.04546 | 34989 ft | 491 kts | 111° |
| 2026-05-07 08:12 | 28.07206 | -86.97265 | 35004 ft | 491 kts | 111° |
| 2026-05-07 08:13 | 28.05028 | -86.89932 | 35003 ft | 491 kts | 111° |
| 2026-05-07 08:13 | 28.02849 | -86.82610 | 35005 ft | 491 kts | 111° |
| 2026-05-07 08:14 | 28.00661 | -86.75276 | 35007 ft | 491 kts | 110° |
| 2026-05-07 08:14 | 27.98536 | -86.67925 | 35013 ft | 491 kts | 110° |
| 2026-05-07 08:15 | 27.96417 | -86.60575 | 35011 ft | 491 kts | 110° |
| 2026-05-07 08:15 | 27.94299 | -86.53265 | 35002 ft | 491 kts | 110° |
| 2026-05-07 08:16 | 27.92155 | -86.45911 | 35002 ft | 492 kts | 110° |
| 2026-05-07 08:16 | 27.90021 | -86.38577 | 35020 ft | 492 kts | 110° |
| 2026-05-07 08:17 | 27.87876 | -86.31230 | 35020 ft | 492 kts | 110° |
| 2026-05-07 08:17 | 27.85737 | -86.23919 | 35016 ft | 492 kts | 110° |
| 2026-05-07 08:18 | 27.83581 | -86.16574 | 35022 ft | 492 kts | 110° |
| 2026-05-07 08:18 | 27.81416 | -86.09195 | 35016 ft | 492 kts | 110° |
| 2026-05-07 08:19 | 27.79253 | -86.01858 | 35020 ft | 492 kts | 110° |
| 2026-05-07 08:19 | 27.77103 | -85.94585 | 35020 ft | 492 kts | 110° |
| 2026-05-07 08:20 | 27.74939 | -85.87263 | 35013 ft | 491 kts | 110° |
| 2026-05-07 08:20 | 27.72772 | -85.79946 | 35022 ft | 491 kts | 110° |
| 2026-05-07 08:21 | 27.70599 | -85.72638 | 35018 ft | 491 kts | 110° |
| 2026-05-07 08:21 | 27.68424 | -85.65348 | 35020 ft | 491 kts | 110° |
| 2026-05-07 08:22 | 27.66246 | -85.58045 | 35023 ft | 491 kts | 110° |
| 2026-05-07 08:22 | 27.64062 | -85.50752 | 35027 ft | 491 kts | 110° |
| 2026-05-07 08:23 | 27.61874 | -85.43470 | 35029 ft | 491 kts | 110° |
| 2026-05-07 08:23 | 27.59688 | -85.36175 | 35031 ft | 491 kts | 109° |
| 2026-05-07 08:24 | 27.58143 | -85.28658 | 35030 ft | 492 kts | 102° |
| 2026-05-07 08:24 | 27.56857 | -85.21136 | 35028 ft | 492 kts | 102° |
| 2026-05-07 08:25 | 27.55545 | -85.13563 | 35031 ft | 492 kts | 102° |
| 2026-05-07 08:25 | 27.54218 | -85.05993 | 35028 ft | 492 kts | 102° |
| 2026-05-07 08:26 | 27.52226 | -84.94653 | 35030 ft | 492 kts | 102° |
| 2026-05-07 08:26 | 27.50890 | -84.87081 | 35036 ft | 492 kts | 102° |
| 2026-05-07 08:27 | 27.49550 | -84.79514 | 35033 ft | 492 kts | 102° |
| 2026-05-07 08:27 | 27.48207 | -84.71953 | 35033 ft | 492 kts | 102° |
| 2026-05-07 08:28 | 27.46863 | -84.64399 | 35038 ft | 493 kts | 102° |
| 2026-05-07 08:28 | 27.45509 | -84.56830 | 35036 ft | 493 kts | 102° |
| 2026-05-07 08:29 | 27.44152 | -84.49273 | 35036 ft | 493 kts | 102° |
| 2026-05-07 08:29 | 27.42789 | -84.41698 | 35037 ft | 493 kts | 102° |
| 2026-05-07 08:30 | 27.41435 | -84.34194 | 35033 ft | 493 kts | 102° |
| 2026-05-07 08:30 | 27.40066 | -84.26635 | 35034 ft | 493 kts | 102° |
| 2026-05-07 08:31 | 27.38696 | -84.19099 | 35029 ft | 493 kts | 102° |
| 2026-05-07 08:31 | 27.37318 | -84.11543 | 35031 ft | 493 kts | 102° |
| 2026-05-07 08:32 | 27.35937 | -84.03998 | 35036 ft | 493 kts | 102° |
| 2026-05-07 08:32 | 27.34553 | -83.96452 | 35040 ft | 492 kts | 102° |
| 2026-05-07 08:33 | 27.33163 | -83.88907 | 35042 ft | 492 kts | 102° |
| 2026-05-07 08:33 | 27.31769 | -83.81358 | 35040 ft | 492 kts | 102° |
| 2026-05-07 08:34 | 27.30376 | -83.73832 | 35045 ft | 492 kts | 102° |
| 2026-05-07 08:34 | 27.28979 | -83.66314 | 35042 ft | 492 kts | 102° |
| 2026-05-07 08:35 | 27.27574 | -83.58787 | 35040 ft | 491 kts | 102° |
| 2026-05-07 08:35 | 27.26170 | -83.51272 | 35042 ft | 491 kts | 102° |
| 2026-05-07 08:36 | 27.24767 | -83.43790 | 35043 ft | 491 kts | 102° |
| 2026-05-07 08:36 | 27.23591 | -83.37542 | 35048 ft | 491 kts | 102° |
| 2026-05-07 08:37 | 27.22176 | -83.30041 | 35047 ft | 491 kts | 102° |
| 2026-05-07 08:37 | 27.20758 | -83.22537 | 35048 ft | 490 kts | 102° |
| 2026-05-07 08:38 | 27.19337 | -83.15048 | 35044 ft | 490 kts | 102° |
| 2026-05-07 08:38 | 27.17909 | -83.07554 | 35049 ft | 490 kts | 102° |
| 2026-05-07 08:39 | 27.16477 | -83.00072 | 35052 ft | 490 kts | 102° |
| 2026-05-07 08:39 | 27.15047 | -82.92598 | 35045 ft | 490 kts | 102° |
| 2026-05-07 08:40 | 27.13502 | -82.85162 | 35044 ft | 489 kts | 109° |
| 2026-05-07 08:40 | 27.12135 | -82.81678 | 35048 ft | 487 kts | 121° |
| 2026-05-07 08:40 | 27.10395 | -82.78419 | 35058 ft | 486 kts | 124° |
| 2026-05-07 08:41 | 27.06805 | -82.72022 | 35049 ft | 486 kts | 124° |
| 2026-05-07 08:41 | 27.03238 | -82.65569 | 35044 ft | 487 kts | 123° |
| 2026-05-07 08:42 | 26.99703 | -82.59144 | 35041 ft | 487 kts | 123° |
| 2026-05-07 08:42 | 26.96156 | -82.52704 | 34729 ft | 483 kts | 123° |
| 2026-05-07 08:43 | 26.94391 | -82.49508 | 34461 ft | 481 kts | 123° |
| 2026-05-07 08:43 | 26.92618 | -82.46337 | 34220 ft | 479 kts | 126° |
| 2026-05-07 08:43 | 26.90565 | -82.43431 | 33964 ft | 474 kts | 137° |
| 2026-05-07 08:43 | 26.88151 | -82.40939 | 33715 ft | 470 kts | 142° |
| 2026-05-07 08:44 | 26.85665 | -82.38582 | 33452 ft | 468 kts | 143° |
| 2026-05-07 08:44 | 26.83174 | -82.36242 | 33188 ft | 466 kts | 143° |
| 2026-05-07 08:44 | 26.80701 | -82.33899 | 32945 ft | 464 kts | 143° |
| 2026-05-07 08:44 | 26.78251 | -82.31560 | 32700 ft | 463 kts | 143° |
| 2026-05-07 08:45 | 26.75802 | -82.29214 | 32449 ft | 461 kts | 143° |
| 2026-05-07 08:45 | 26.73365 | -82.26880 | 32197 ft | 460 kts | 143° |
| 2026-05-07 08:45 | 26.70934 | -82.24553 | 31954 ft | 458 kts | 143° |
| 2026-05-07 08:45 | 26.68519 | -82.22243 | 31709 ft | 457 kts | 143° |
| 2026-05-07 08:46 | 26.66134 | -82.19962 | 31465 ft | 455 kts | 143° |
| 2026-05-07 08:46 | 26.63746 | -82.17682 | 31231 ft | 453 kts | 143° |
| 2026-05-07 08:46 | 26.61345 | -82.15391 | 30992 ft | 452 kts | 143° |
| 2026-05-07 08:46 | 26.58959 | -82.13113 | 30758 ft | 451 kts | 143° |
| 2026-05-07 08:47 | 26.56581 | -82.10845 | 30527 ft | 449 kts | 143° |
| 2026-05-07 08:47 | 26.54172 | -82.08550 | 30289 ft | 448 kts | 143° |
| 2026-05-07 08:47 | 26.51863 | -82.06290 | 30051 ft | 447 kts | 141° |
| 2026-05-07 08:47 | 26.49560 | -82.03975 | 29638 ft | 444 kts | 141° |
| 2026-05-07 08:48 | 26.47279 | -82.01672 | 29117 ft | 441 kts | 141° |
| 2026-05-07 08:48 | 26.45015 | -81.99388 | 28579 ft | 438 kts | 141° |
| 2026-05-07 08:48 | 26.42748 | -81.97105 | 28053 ft | 436 kts | 141° |
| 2026-05-07 08:48 | 26.40510 | -81.94852 | 27547 ft | 432 kts | 141° |
| 2026-05-07 08:49 | 26.38280 | -81.92611 | 27033 ft | 430 kts | 141° |
| 2026-05-07 08:49 | 26.36059 | -81.90378 | 26507 ft | 428 kts | 141° |
| 2026-05-07 08:49 | 26.33824 | -81.88133 | 26002 ft | 426 kts | 141° |
| 2026-05-07 08:49 | 26.31630 | -81.85929 | 25509 ft | 424 kts | 141° |
| 2026-05-07 08:50 | 26.29443 | -81.83734 | 25010 ft | 422 kts | 141° |
| 2026-05-07 08:50 | 26.27284 | -81.81570 | 24505 ft | 421 kts | 141° |
| 2026-05-07 08:50 | 26.25120 | -81.79396 | 24001 ft | 418 kts | 140° |
| 2026-05-07 08:50 | 26.23182 | -81.76923 | 23440 ft | 419 kts | 124° |
| 2026-05-07 08:51 | 26.21856 | -81.74049 | 22875 ft | 416 kts | 116° |
| 2026-05-07 08:51 | 26.20669 | -81.71176 | 22330 ft | 412 kts | 115° |
| 2026-05-07 08:51 | 26.19466 | -81.68303 | 21800 ft | 408 kts | 116° |
| 2026-05-07 08:51 | 26.18271 | -81.65500 | 21278 ft | 404 kts | 116° |
| 2026-05-07 08:52 | 26.17057 | -81.62686 | 20779 ft | 399 kts | 116° |
| 2026-05-07 08:52 | 26.15856 | -81.59921 | 20294 ft | 395 kts | 116° |
| 2026-05-07 08:52 | 26.14663 | -81.57182 | 19844 ft | 390 kts | 116° |
| 2026-05-07 08:52 | 26.13486 | -81.54482 | 19390 ft | 386 kts | 116° |
| 2026-05-07 08:53 | 26.12321 | -81.51814 | 18949 ft | 381 kts | 116° |
| 2026-05-07 08:53 | 26.11168 | -81.49172 | 18517 ft | 376 kts | 115° |
| 2026-05-07 08:53 | 26.10034 | -81.46575 | 18055 ft | 371 kts | 115° |
| 2026-05-07 08:53 | 26.08912 | -81.44010 | 17586 ft | 366 kts | 115° |
| 2026-05-07 08:54 | 26.07804 | -81.41478 | 17142 ft | 361 kts | 115° |
| 2026-05-07 08:54 | 26.06715 | -81.38987 | 16707 ft | 356 kts | 115° |
| 2026-05-07 08:54 | 26.05648 | -81.36535 | 16296 ft | 350 kts | 115° |
| 2026-05-07 08:54 | 26.04607 | -81.34138 | 15914 ft | 344 kts | 115° |
| 2026-05-07 08:55 | 26.03560 | -81.31736 | 15527 ft | 339 kts | 115° |
| 2026-05-07 08:55 | 26.02534 | -81.29385 | 15161 ft | 338 kts | 115° |
| 2026-05-07 08:55 | 26.01509 | -81.27034 | 14793 ft | 338 kts | 115° |
| 2026-05-07 08:55 | 26.00481 | -81.24677 | 14405 ft | 339 kts | 115° |
| 2026-05-07 08:56 | 25.99461 | -81.22341 | 14013 ft | 340 kts | 115° |
| 2026-05-07 08:56 | 25.98430 | -81.19981 | 13593 ft | 341 kts | 114° |
| 2026-05-07 08:56 | 25.97398 | -81.17619 | 13162 ft | 336 kts | 115° |
| 2026-05-07 08:56 | 25.96383 | -81.15302 | 12774 ft | 329 kts | 115° |
| 2026-05-07 08:57 | 25.95389 | -81.13032 | 12390 ft | 322 kts | 115° |
| 2026-05-07 08:57 | 25.94421 | -81.10819 | 11997 ft | 316 kts | 115° |
| 2026-05-07 08:57 | 25.93465 | -81.08636 | 11611 ft | 311 kts | 115° |
| 2026-05-07 08:57 | 25.92526 | -81.06496 | 11233 ft | 305 kts | 115° |
| 2026-05-07 08:58 | 25.91603 | -81.04391 | 10863 ft | 301 kts | 115° |
| 2026-05-07 08:58 | 25.90756 | -81.02295 | 10520 ft | 301 kts | 112° |
| 2026-05-07 08:58 | 25.89948 | -81.00181 | 10268 ft | 291 kts | 112° |
| 2026-05-07 08:58 | 25.89166 | -80.98136 | 9966 ft | 285 kts | 112° |
| 2026-05-07 08:59 | 25.88398 | -80.96126 | 9577 ft | 281 kts | 112° |
| 2026-05-07 08:59 | 25.87631 | -80.94127 | 9199 ft | 282 kts | 112° |
| 2026-05-07 08:59 | 25.86861 | -80.92117 | 8846 ft | 282 kts | 112° |
| 2026-05-07 08:59 | 25.86099 | -80.90132 | 8569 ft | 278 kts | 112° |
| 2026-05-07 09:00 | 25.85343 | -80.88164 | 8324 ft | 274 kts | 113° |
| 2026-05-07 09:00 | 25.84601 | -80.86234 | 8089 ft | 269 kts | 113° |
| 2026-05-07 09:00 | 25.83872 | -80.84337 | 7829 ft | 266 kts | 113° |
| 2026-05-07 09:00 | 25.83144 | -80.82447 | 7465 ft | 267 kts | 113° |
| 2026-05-07 09:01 | 25.82409 | -80.80540 | 7071 ft | 270 kts | 113° |
| 2026-05-07 09:01 | 25.81673 | -80.78629 | 6679 ft | 273 kts | 113° |
| 2026-05-07 09:01 | 25.80924 | -80.76682 | 6259 ft | 276 kts | 113° |
| 2026-05-07 09:01 | 25.80167 | -80.74718 | 5832 ft | 278 kts | 113° |
| 2026-05-07 09:02 | 25.79409 | -80.72755 | 5448 ft | 275 kts | 113° |
| 2026-05-07 09:02 | 25.78659 | -80.70810 | 5049 ft | 273 kts | 112° |
| 2026-05-07 09:02 | 25.77914 | -80.68879 | 4636 ft | 271 kts | 112° |
| 2026-05-07 09:02 | 25.77236 | -80.66947 | 4230 ft | 268 kts | 104° |
| 2026-05-07 09:03 | 25.77090 | -80.64928 | 4021 ft | 258 kts | 88° |
| 2026-05-07 09:03 | 25.77203 | -80.63037 | 3940 ft | 244 kts | 86° |
| 2026-05-07 09:03 | 25.77315 | -80.61288 | 3920 ft | 226 kts | 86° |
| 2026-05-07 09:03 | 25.77413 | -80.59664 | 3981 ft | 198 kts | 86° |
| 2026-05-07 09:04 | 25.77494 | -80.58223 | 3984 ft | 176 kts | 87° |
| 2026-05-07 09:04 | 25.77560 | -80.56950 | 3950 ft | 154 kts | 87° |
| 2026-05-07 09:04 | 25.77613 | -80.55753 | 3890 ft | 159 kts | 88° |
| 2026-05-07 09:04 | 25.77666 | -80.54545 | 3536 ft | 156 kts | 88° |
| 2026-05-07 09:05 | 25.77734 | -80.53332 | 3216 ft | 159 kts | 87° |
| 2026-05-07 09:05 | 25.77774 | -80.52103 | 2994 ft | 158 kts | 89° |
| 2026-05-07 09:05 | 25.77822 | -80.50882 | 2959 ft | 158 kts | 89° |
| 2026-05-07 09:05 | 25.77871 | -80.49661 | 2967 ft | 158 kts | 89° |
| 2026-05-07 09:06 | 25.77920 | -80.48479 | 2949 ft | 144 kts | 89° |
| 2026-05-07 09:06 | 25.77964 | -80.47394 | 2810 ft | 140 kts | 89° |
| 2026-05-07 09:06 | 25.78008 | -80.46314 | 2645 ft | 140 kts | 90° |
| 2026-05-07 09:06 | 25.78051 | -80.45241 | 2468 ft | 139 kts | 90° |
| 2026-05-07 09:07 | 25.78095 | -80.44172 | 2287 ft | 138 kts | 90° |
| 2026-05-07 09:07 | 25.78139 | -80.43123 | 2110 ft | 137 kts | 90° |
| 2026-05-07 09:07 | 25.78182 | -80.42065 | 1928 ft | 137 kts | 90° |
| 2026-05-07 09:07 | 25.78225 | -80.41027 | 1754 ft | 136 kts | 90° |
| 2026-05-07 09:08 | 25.78268 | -80.39979 | 1589 ft | 136 kts | 90° |
| 2026-05-07 09:08 | 25.78309 | -80.38930 | 1402 ft | 136 kts | 90° |
| 2026-05-07 09:08 | 25.78349 | -80.37885 | 1128 ft | 134 kts | 90° |
| 2026-05-07 09:08 | 25.78391 | -80.36847 | 981 ft | 135 kts | 89° |
| 2026-05-07 09:09 | 25.78441 | -80.35809 | 817 ft | 135 kts | 89° |
| 2026-05-07 09:09 | 25.78473 | -80.34769 | 658 ft | 135 kts | 89° |
| 2026-05-07 09:09 | 25.78524 | -80.33729 | 498 ft | 135 kts | 88° |
| 2026-05-07 09:09 | 25.78571 | -80.32691 | 323 ft | 134 kts | 89° |
| 2026-05-07 09:10 | 25.78600 | -80.31651 | 154 ft | 135 kts | 89° |
| 2026-05-07 09:10 | 25.78654 | -80.30605 | 39 ft | 134 kts | 89° |
| 2026-05-07 09:10 | 25.78683 | -80.29746 | 24 ft | 114 kts | 88° |
| 2026-05-07 09:10 | 25.78723 | -80.28987 | 22 ft | 82 kts | 85° |
| 2026-05-07 09:11 | 25.78731 | -80.28698 | 24 ft | 12 kts | 90° |
| 2026-05-07 09:11 | 25.78743 | -80.28595 | 23 ft | 15 kts | 79° |
| 2026-05-07 09:11 | 25.78792 | -80.28466 | 25 ft | 22 kts | 40° |
| 2026-05-07 09:11 | 25.78885 | -80.28342 | 24 ft | 21 kts | 48° |
| 2026-05-07 09:12 | 25.78974 | -80.28211 | 26 ft | 20 kts | 77° |
| 2026-05-07 09:12 | 25.78990 | -80.28048 | 27 ft | 17 kts | 83° |
| 2026-05-07 09:12 | 25.78950 | -80.27944 | 28 ft | 13 kts | 119° |
| 2026-05-07 09:12 | 25.78902 | -80.27854 | 27 ft | 14 kts | 120° |
| 2026-05-07 09:13 | 25.78876 | -80.27744 | 23 ft | 16 kts | 96° |
| 2026-05-07 09:13 | 25.78890 | -80.27615 | 24 ft | 18 kts | 77° |
| 2026-05-07 09:13 | 25.78937 | -80.27527 | 24 ft | 13 kts | 17° |
| 2026-05-07 09:13 | 25.79033 | -80.27531 | 23 ft | 15 kts | 358° |
| 2026-05-07 09:14 | 25.79119 | -80.27540 | 22 ft | 3 kts | 315° |
| 2026-05-07 09:14 | 25.79119 | -80.27572 | 23 ft | 2 kts | 271° |
| 2026-05-07 09:14 | 25.79119 | -80.27603 | 24 ft | 6 kts | 269° |
| 2026-05-07 09:14 | 25.79119 | -80.27606 | 24 ft | 0 kts | 269° |
| 2026-05-07 09:15 | 25.79119 | -80.27607 | 24 ft | 0 kts | 269° |